sensor_id;sensor_type;location;lat;lon;timestamp;P1;durP1;ratioP1;P2;durP2;ratioP2
58338;SDS011;48278;52.704;6.536;2022-07-29T00:00:39;2.38;;;0.90;;
58338;SDS011;48278;52.704;6.536;2022-07-29T00:03:05;6.65;;;1.20;;
58338;SDS011;48278;52.704;6.536;2022-07-29T00:05:31;4.53;;;1.23;;
58338;SDS011;48278;52.704;6.536;2022-07-29T00:07:56;4.97;;;1.10;;
58338;SDS011;48278;52.704;6.536;2022-07-29T00:10:22;10.82;;;1.20;;
58338;SDS011;48278;52.704;6.536;2022-07-29T00:12:48;4.72;;;1.10;;
58338;SDS011;48278;52.704;6.536;2022-07-29T00:15:14;4.75;;;1.30;;
58338;SDS011;48278;52.704;6.536;2022-07-29T00:17:40;6.20;;;1.13;;
58338;SDS011;48278;52.704;6.536;2022-07-29T00:20:06;4.28;;;1.05;;
58338;SDS011;48278;52.704;6.536;2022-07-29T00:22:32;5.32;;;1.27;;
58338;SDS011;48278;52.704;6.536;2022-07-29T00:24:58;5.73;;;1.60;;
58338;SDS011;48278;52.704;6.536;2022-07-29T00:27:24;4.78;;;1.10;;
58338;SDS011;48278;52.704;6.536;2022-07-29T00:29:50;2.85;;;1.20;;
58338;SDS011;48278;52.704;6.536;2022-07-29T00:32:15;6.55;;;1.50;;
58338;SDS011;48278;52.704;6.536;2022-07-29T00:34:41;5.40;;;1.40;;
58338;SDS011;48278;52.704;6.536;2022-07-29T00:37:25;6.03;;;1.33;;
58338;SDS011;48278;52.704;6.536;2022-07-29T00:39:51;7.35;;;1.50;;
58338;SDS011;48278;52.704;6.536;2022-07-29T00:42:17;4.78;;;1.63;;
58338;SDS011;48278;52.704;6.536;2022-07-29T00:44:43;9.57;;;2.10;;
58338;SDS011;48278;52.704;6.536;2022-07-29T00:47:09;3.15;;;1.15;;
58338;SDS011;48278;52.704;6.536;2022-07-29T00:49:35;7.45;;;1.50;;
58338;SDS011;48278;52.704;6.536;2022-07-29T00:52:04;5.60;;;1.42;;
58338;SDS011;48278;52.704;6.536;2022-07-29T00:57:00;6.28;;;1.88;;
58338;SDS011;48278;52.704;6.536;2022-07-29T00:59:27;6.95;;;1.73;;
58338;SDS011;48278;52.704;6.536;2022-07-29T01:01:53;3.57;;;1.60;;
58338;SDS011;48278;52.704;6.536;2022-07-29T01:04:20;6.15;;;1.67;;
58338;SDS011;48278;52.704;6.536;2022-07-29T01:06:47;6.53;;;1.67;;
58338;SDS011;48278;52.704;6.536;2022-07-29T01:09:14;6.40;;;2.08;;
58338;SDS011;48278;52.704;6.536;2022-07-29T01:11:42;5.45;;;1.70;;
58338;SDS011;48278;52.704;6.536;2022-07-29T01:16:37;6.28;;;1.63;;
58338;SDS011;48278;52.704;6.536;2022-07-29T01:19:21;5.18;;;2.00;;
58338;SDS011;48278;52.704;6.536;2022-07-29T01:22:09;7.45;;;2.30;;
58338;SDS011;48278;52.704;6.536;2022-07-29T01:25:10;4.18;;;1.60;;
58338;SDS011;48278;52.704;6.536;2022-07-29T01:30:25;5.82;;;1.77;;
58338;SDS011;48278;52.704;6.536;2022-07-29T01:32:56;5.03;;;1.67;;
58338;SDS011;48278;52.704;6.536;2022-07-29T01:35:26;5.78;;;2.05;;
58338;SDS011;48278;52.704;6.536;2022-07-29T01:37:58;8.38;;;3.53;;
58338;SDS011;48278;52.704;6.536;2022-07-29T01:40:42;5.03;;;1.85;;
58338;SDS011;48278;52.704;6.536;2022-07-29T01:43:17;6.20;;;1.85;;
58338;SDS011;48278;52.704;6.536;2022-07-29T01:46:01;6.93;;;2.08;;
58338;SDS011;48278;52.704;6.536;2022-07-29T01:48:42;5.22;;;1.52;;
58338;SDS011;48278;52.704;6.536;2022-07-29T01:51:20;5.60;;;1.70;;
58338;SDS011;48278;52.704;6.536;2022-07-29T01:53:59;4.75;;;1.70;;
58338;SDS011;48278;52.704;6.536;2022-07-29T01:56:39;7.25;;;2.05;;
58338;SDS011;48278;52.704;6.536;2022-07-29T01:59:08;10.05;;;1.77;;
58338;SDS011;48278;52.704;6.536;2022-07-29T02:01:35;4.10;;;1.50;;
58338;SDS011;48278;52.704;6.536;2022-07-29T02:04:02;7.10;;;1.77;;
58338;SDS011;48278;52.704;6.536;2022-07-29T02:06:30;5.20;;;1.88;;
58338;SDS011;48278;52.704;6.536;2022-07-29T02:09:01;5.35;;;1.73;;
58338;SDS011;48278;52.704;6.536;2022-07-29T02:13:56;6.57;;;1.98;;
58338;SDS011;48278;52.704;6.536;2022-07-29T02:18:50;6.55;;;2.00;;
58338;SDS011;48278;52.704;6.536;2022-07-29T02:21:21;3.67;;;1.75;;
58338;SDS011;48278;52.704;6.536;2022-07-29T02:23:49;4.80;;;1.90;;
58338;SDS011;48278;52.704;6.536;2022-07-29T02:26:19;4.63;;;1.90;;
58338;SDS011;48278;52.704;6.536;2022-07-29T02:28:47;5.30;;;2.03;;
58338;SDS011;48278;52.704;6.536;2022-07-29T02:31:15;6.13;;;1.70;;
58338;SDS011;48278;52.704;6.536;2022-07-29T02:33:43;4.18;;;1.52;;
58338;SDS011;48278;52.704;6.536;2022-07-29T02:36:12;5.53;;;2.08;;
58338;SDS011;48278;52.704;6.536;2022-07-29T02:38:39;4.10;;;1.60;;
58338;SDS011;48278;52.704;6.536;2022-07-29T02:41:23;4.00;;;1.67;;
58338;SDS011;48278;52.704;6.536;2022-07-29T02:43:54;4.35;;;1.70;;
58338;SDS011;48278;52.704;6.536;2022-07-29T02:47:06;6.13;;;1.80;;
58338;SDS011;48278;52.704;6.536;2022-07-29T02:49:41;6.35;;;2.28;;
58338;SDS011;48278;52.704;6.536;2022-07-29T02:52:18;5.43;;;1.98;;
58338;SDS011;48278;52.704;6.536;2022-07-29T02:54:56;6.10;;;2.10;;
58338;SDS011;48278;52.704;6.536;2022-07-29T02:57:33;6.32;;;1.90;;
58338;SDS011;48278;52.704;6.536;2022-07-29T03:00:05;5.68;;;2.20;;
58338;SDS011;48278;52.704;6.536;2022-07-29T03:02:34;7.43;;;1.90;;
58338;SDS011;48278;52.704;6.536;2022-07-29T03:05:04;6.15;;;1.98;;
58338;SDS011;48278;52.704;6.536;2022-07-29T03:07:31;5.80;;;1.80;;
58338;SDS011;48278;52.704;6.536;2022-07-29T03:09:58;5.45;;;1.80;;
58338;SDS011;48278;52.704;6.536;2022-07-29T03:12:24;4.27;;;1.70;;
58338;SDS011;48278;52.704;6.536;2022-07-29T03:14:52;4.57;;;1.73;;
58338;SDS011;48278;52.704;6.536;2022-07-29T03:17:18;5.07;;;1.80;;
58338;SDS011;48278;52.704;6.536;2022-07-29T03:19:46;7.95;;;1.70;;
58338;SDS011;48278;52.704;6.536;2022-07-29T03:22:13;5.55;;;1.67;;
58338;SDS011;48278;52.704;6.536;2022-07-29T03:24:39;6.82;;;2.38;;
58338;SDS011;48278;52.704;6.536;2022-07-29T03:27:05;6.65;;;2.45;;
58338;SDS011;48278;52.704;6.536;2022-07-29T03:29:31;6.10;;;1.58;;
58338;SDS011;48278;52.704;6.536;2022-07-29T03:31:57;7.07;;;1.80;;
58338;SDS011;48278;52.704;6.536;2022-07-29T03:34:23;5.60;;;1.75;;
58338;SDS011;48278;52.704;6.536;2022-07-29T03:36:49;6.25;;;2.00;;
58338;SDS011;48278;52.704;6.536;2022-07-29T03:39:17;6.50;;;1.80;;
58338;SDS011;48278;52.704;6.536;2022-07-29T03:41:45;10.48;;;2.17;;
58338;SDS011;48278;52.704;6.536;2022-07-29T03:44:15;4.68;;;1.75;;
58338;SDS011;48278;52.704;6.536;2022-07-29T03:46:43;4.75;;;1.70;;
58338;SDS011;48278;52.704;6.536;2022-07-29T03:49:11;6.15;;;1.60;;
58338;SDS011;48278;52.704;6.536;2022-07-29T03:51:39;6.68;;;2.08;;
58338;SDS011;48278;52.704;6.536;2022-07-29T03:54:06;5.05;;;2.00;;
58338;SDS011;48278;52.704;6.536;2022-07-29T03:56:32;3.67;;;1.45;;
58338;SDS011;48278;52.704;6.536;2022-07-29T03:59:02;8.18;;;2.08;;
58338;SDS011;48278;52.704;6.536;2022-07-29T04:01:29;5.50;;;1.88;;
58338;SDS011;48278;52.704;6.536;2022-07-29T04:03:57;6.63;;;1.70;;
58338;SDS011;48278;52.704;6.536;2022-07-29T04:06:23;5.22;;;2.05;;
58338;SDS011;48278;52.704;6.536;2022-07-29T04:08:50;7.57;;;1.90;;
58338;SDS011;48278;52.704;6.536;2022-07-29T04:11:16;9.98;;;2.22;;
58338;SDS011;48278;52.704;6.536;2022-07-29T04:13:42;5.53;;;2.00;;
58338;SDS011;48278;52.704;6.536;2022-07-29T04:16:07;8.38;;;1.80;;
58338;SDS011;48278;52.704;6.536;2022-07-29T04:18:33;5.65;;;2.00;;
58338;SDS011;48278;52.704;6.536;2022-07-29T04:20:59;5.97;;;2.10;;
58338;SDS011;48278;52.704;6.536;2022-07-29T04:23:26;9.15;;;1.70;;
58338;SDS011;48278;52.704;6.536;2022-07-29T04:25:52;6.43;;;2.20;;
58338;SDS011;48278;52.704;6.536;2022-07-29T04:28:18;5.72;;;1.92;;
58338;SDS011;48278;52.704;6.536;2022-07-29T04:30:43;8.18;;;1.73;;
58338;SDS011;48278;52.704;6.536;2022-07-29T04:33:11;7.07;;;2.15;;
58338;SDS011;48278;52.704;6.536;2022-07-29T04:35:37;6.57;;;2.08;;
58338;SDS011;48278;52.704;6.536;2022-07-29T04:38:05;5.50;;;1.75;;
58338;SDS011;48278;52.704;6.536;2022-07-29T04:40:31;8.32;;;2.17;;
58338;SDS011;48278;52.704;6.536;2022-07-29T04:42:58;5.05;;;1.50;;
58338;SDS011;48278;52.704;6.536;2022-07-29T04:45:25;7.30;;;2.20;;
58338;SDS011;48278;52.704;6.536;2022-07-29T04:47:51;4.18;;;1.90;;
58338;SDS011;48278;52.704;6.536;2022-07-29T04:50:16;5.57;;;1.67;;
58338;SDS011;48278;52.704;6.536;2022-07-29T04:52:42;8.07;;;2.05;;
58338;SDS011;48278;52.704;6.536;2022-07-29T04:55:08;9.38;;;2.22;;
58338;SDS011;48278;52.704;6.536;2022-07-29T04:57:35;6.70;;;2.03;;
58338;SDS011;48278;52.704;6.536;2022-07-29T05:00:01;4.18;;;1.63;;
58338;SDS011;48278;52.704;6.536;2022-07-29T05:02:29;11.63;;;2.55;;
58338;SDS011;48278;52.704;6.536;2022-07-29T05:04:54;5.03;;;1.85;;
58338;SDS011;48278;52.704;6.536;2022-07-29T05:07:20;6.97;;;1.88;;
58338;SDS011;48278;52.704;6.536;2022-07-29T05:09:46;7.57;;;2.10;;
58338;SDS011;48278;52.704;6.536;2022-07-29T05:12:11;5.80;;;1.90;;
58338;SDS011;48278;52.704;6.536;2022-07-29T05:14:37;5.60;;;1.88;;
58338;SDS011;48278;52.704;6.536;2022-07-29T05:17:03;7.55;;;1.90;;
58338;SDS011;48278;52.704;6.536;2022-07-29T05:19:29;7.00;;;1.77;;
58338;SDS011;48278;52.704;6.536;2022-07-29T05:21:54;5.32;;;1.90;;
58338;SDS011;48278;52.704;6.536;2022-07-29T05:24:20;5.07;;;1.63;;
58338;SDS011;48278;52.704;6.536;2022-07-29T05:26:46;7.28;;;2.05;;
58338;SDS011;48278;52.704;6.536;2022-07-29T05:29:11;5.03;;;1.88;;
58338;SDS011;48278;52.704;6.536;2022-07-29T05:31:37;6.75;;;1.90;;
58338;SDS011;48278;52.704;6.536;2022-07-29T05:34:03;7.60;;;1.85;;
58338;SDS011;48278;52.704;6.536;2022-07-29T05:36:28;8.80;;;2.30;;
58338;SDS011;48278;52.704;6.536;2022-07-29T05:38:54;7.90;;;1.45;;
58338;SDS011;48278;52.704;6.536;2022-07-29T05:41:20;4.50;;;1.70;;
58338;SDS011;48278;52.704;6.536;2022-07-29T05:43:46;7.00;;;1.63;;
58338;SDS011;48278;52.704;6.536;2022-07-29T05:46:11;6.30;;;1.80;;
58338;SDS011;48278;52.704;6.536;2022-07-29T05:48:39;6.15;;;1.80;;
58338;SDS011;48278;52.704;6.536;2022-07-29T05:51:05;8.20;;;1.83;;
58338;SDS011;48278;52.704;6.536;2022-07-29T05:53:31;7.40;;;1.75;;
58338;SDS011;48278;52.704;6.536;2022-07-29T05:55:56;3.97;;;1.67;;
58338;SDS011;48278;52.704;6.536;2022-07-29T05:58:22;4.35;;;1.60;;
58338;SDS011;48278;52.704;6.536;2022-07-29T06:00:48;4.13;;;1.52;;
58338;SDS011;48278;52.704;6.536;2022-07-29T06:03:14;10.05;;;1.63;;
58338;SDS011;48278;52.704;6.536;2022-07-29T06:05:40;6.38;;;1.63;;
58338;SDS011;48278;52.704;6.536;2022-07-29T06:08:06;6.75;;;1.63;;
58338;SDS011;48278;52.704;6.536;2022-07-29T06:10:32;8.87;;;1.67;;
58338;SDS011;48278;52.704;6.536;2022-07-29T06:13:00;4.30;;;1.38;;
58338;SDS011;48278;52.704;6.536;2022-07-29T06:15:26;7.50;;;1.60;;
58338;SDS011;48278;52.704;6.536;2022-07-29T06:17:52;7.45;;;1.90;;
58338;SDS011;48278;52.704;6.536;2022-07-29T06:20:18;8.48;;;1.90;;
58338;SDS011;48278;52.704;6.536;2022-07-29T06:22:44;7.38;;;1.67;;
58338;SDS011;48278;52.704;6.536;2022-07-29T06:25:09;6.85;;;1.67;;
58338;SDS011;48278;52.704;6.536;2022-07-29T06:27:35;9.88;;;1.30;;
58338;SDS011;48278;52.704;6.536;2022-07-29T06:30:01;7.03;;;1.50;;
58338;SDS011;48278;52.704;6.536;2022-07-29T06:32:27;5.05;;;1.50;;
58338;SDS011;48278;52.704;6.536;2022-07-29T06:34:53;10.18;;;1.73;;
58338;SDS011;48278;52.704;6.536;2022-07-29T06:37:19;4.65;;;1.67;;
58338;SDS011;48278;52.704;6.536;2022-07-29T06:39:44;7.22;;;1.65;;
58338;SDS011;48278;52.704;6.536;2022-07-29T06:42:10;5.03;;;1.60;;
58338;SDS011;48278;52.704;6.536;2022-07-29T06:44:36;6.00;;;1.80;;
58338;SDS011;48278;52.704;6.536;2022-07-29T06:47:02;4.47;;;1.73;;
58338;SDS011;48278;52.704;6.536;2022-07-29T06:49:32;7.95;;;1.90;;
58338;SDS011;48278;52.704;6.536;2022-07-29T06:51:58;6.32;;;2.33;;
58338;SDS011;48278;52.704;6.536;2022-07-29T06:54:23;5.13;;;1.95;;
58338;SDS011;48278;52.704;6.536;2022-07-29T06:56:49;7.82;;;1.90;;
58338;SDS011;48278;52.704;6.536;2022-07-29T06:59:15;7.30;;;1.95;;
58338;SDS011;48278;52.704;6.536;2022-07-29T07:01:42;7.50;;;1.75;;
58338;SDS011;48278;52.704;6.536;2022-07-29T07:04:08;6.32;;;2.17;;
58338;SDS011;48278;52.704;6.536;2022-07-29T07:06:34;8.10;;;1.98;;
58338;SDS011;48278;52.704;6.536;2022-07-29T07:09:00;15.82;;;2.40;;
58338;SDS011;48278;52.704;6.536;2022-07-29T07:11:27;4.63;;;1.80;;
58338;SDS011;48278;52.704;6.536;2022-07-29T07:13:53;8.73;;;1.75;;
58338;SDS011;48278;52.704;6.536;2022-07-29T07:16:19;6.10;;;1.98;;
58338;SDS011;48278;52.704;6.536;2022-07-29T07:18:45;3.15;;;1.58;;
58338;SDS011;48278;52.704;6.536;2022-07-29T07:21:11;5.07;;;1.67;;
58338;SDS011;48278;52.704;6.536;2022-07-29T07:23:37;4.28;;;1.63;;
58338;SDS011;48278;52.704;6.536;2022-07-29T07:26:03;6.75;;;2.50;;
58338;SDS011;48278;52.704;6.536;2022-07-29T07:28:30;6.40;;;1.85;;
58338;SDS011;48278;52.704;6.536;2022-07-29T07:30:56;5.20;;;1.73;;
58338;SDS011;48278;52.704;6.536;2022-07-29T07:33:22;7.32;;;2.35;;
58338;SDS011;48278;52.704;6.536;2022-07-29T07:35:48;5.85;;;2.05;;
58338;SDS011;48278;52.704;6.536;2022-07-29T07:38:14;11.02;;;2.30;;
58338;SDS011;48278;52.704;6.536;2022-07-29T07:40:40;5.73;;;2.20;;
58338;SDS011;48278;52.704;6.536;2022-07-29T07:43:06;6.32;;;2.00;;
58338;SDS011;48278;52.704;6.536;2022-07-29T07:45:32;7.47;;;2.33;;
58338;SDS011;48278;52.704;6.536;2022-07-29T07:47:57;6.17;;;1.97;;
58338;SDS011;48278;52.704;6.536;2022-07-29T07:50:23;7.22;;;2.40;;
58338;SDS011;48278;52.704;6.536;2022-07-29T07:52:51;6.07;;;1.75;;
58338;SDS011;48278;52.704;6.536;2022-07-29T07:55:18;8.10;;;2.13;;
58338;SDS011;48278;52.704;6.536;2022-07-29T07:57:45;6.88;;;2.08;;
58338;SDS011;48278;52.704;6.536;2022-07-29T08:00:12;8.48;;;2.30;;
58338;SDS011;48278;52.704;6.536;2022-07-29T08:02:45;8.32;;;2.00;;
58338;SDS011;48278;52.704;6.536;2022-07-29T08:05:11;10.02;;;2.15;;
58338;SDS011;48278;52.704;6.536;2022-07-29T08:07:42;10.32;;;2.10;;
58338;SDS011;48278;52.704;6.536;2022-07-29T08:10:08;7.88;;;2.10;;
58338;SDS011;48278;52.704;6.536;2022-07-29T08:12:34;9.25;;;2.15;;
58338;SDS011;48278;52.704;6.536;2022-07-29T08:15:00;7.90;;;2.43;;
58338;SDS011;48278;52.704;6.536;2022-07-29T08:17:26;9.88;;;2.28;;
58338;SDS011;48278;52.704;6.536;2022-07-29T08:19:52;7.68;;;2.30;;
58338;SDS011;48278;52.704;6.536;2022-07-29T08:22:18;8.65;;;2.20;;
58338;SDS011;48278;52.704;6.536;2022-07-29T08:24:45;8.23;;;2.20;;
58338;SDS011;48278;52.704;6.536;2022-07-29T08:27:17;6.80;;;2.50;;
58338;SDS011;48278;52.704;6.536;2022-07-29T08:29:44;6.82;;;2.10;;
58338;SDS011;48278;52.704;6.536;2022-07-29T08:32:10;7.72;;;2.80;;
58338;SDS011;48278;52.704;6.536;2022-07-29T08:34:36;9.43;;;2.13;;
58338;SDS011;48278;52.704;6.536;2022-07-29T08:37:02;8.00;;;2.30;;
58338;SDS011;48278;52.704;6.536;2022-07-29T08:39:28;7.50;;;2.58;;
58338;SDS011;48278;52.704;6.536;2022-07-29T08:41:54;7.40;;;2.50;;
58338;SDS011;48278;52.704;6.536;2022-07-29T08:44:20;5.93;;;2.25;;
58338;SDS011;48278;52.704;6.536;2022-07-29T08:46:50;6.57;;;2.40;;
58338;SDS011;48278;52.704;6.536;2022-07-29T08:49:16;6.82;;;2.53;;
58338;SDS011;48278;52.704;6.536;2022-07-29T08:51:43;7.70;;;2.47;;
58338;SDS011;48278;52.704;6.536;2022-07-29T08:54:09;8.55;;;2.58;;
58338;SDS011;48278;52.704;6.536;2022-07-29T08:56:36;8.80;;;2.65;;
58338;SDS011;48278;52.704;6.536;2022-07-29T08:59:04;6.38;;;2.40;;
58338;SDS011;48278;52.704;6.536;2022-07-29T09:01:32;9.73;;;2.92;;
58338;SDS011;48278;52.704;6.536;2022-07-29T09:03:59;5.53;;;2.55;;
58338;SDS011;48278;52.704;6.536;2022-07-29T09:06:29;10.75;;;2.38;;
58338;SDS011;48278;52.704;6.536;2022-07-29T09:08:59;11.02;;;2.80;;
58338;SDS011;48278;52.704;6.536;2022-07-29T09:11:26;7.70;;;2.97;;
58338;SDS011;48278;52.704;6.536;2022-07-29T09:13:58;10.63;;;3.00;;
58338;SDS011;48278;52.704;6.536;2022-07-29T09:19:31;8.70;;;3.13;;
58338;SDS011;48278;52.704;6.536;2022-07-29T09:22:00;11.68;;;3.10;;
58338;SDS011;48278;52.704;6.536;2022-07-29T09:26:59;11.18;;;2.63;;
58338;SDS011;48278;52.704;6.536;2022-07-29T09:29:25;10.73;;;2.90;;
58338;SDS011;48278;52.704;6.536;2022-07-29T09:31:52;9.70;;;2.70;;
58338;SDS011;48278;52.704;6.536;2022-07-29T09:34:23;8.48;;;2.50;;
58338;SDS011;48278;52.704;6.536;2022-07-29T09:36:52;9.15;;;2.60;;
58338;SDS011;48278;52.704;6.536;2022-07-29T09:39:28;12.15;;;2.83;;
58338;SDS011;48278;52.704;6.536;2022-07-29T09:41:57;6.65;;;2.92;;
58338;SDS011;48278;52.704;6.536;2022-07-29T09:44:24;9.55;;;2.60;;
58338;SDS011;48278;52.704;6.536;2022-07-29T09:46:54;7.28;;;2.80;;
58338;SDS011;48278;52.704;6.536;2022-07-29T09:49:30;9.27;;;2.85;;
58338;SDS011;48278;52.704;6.536;2022-07-29T09:52:01;10.02;;;2.78;;
58338;SDS011;48278;52.704;6.536;2022-07-29T09:54:30;8.18;;;2.50;;
58338;SDS011;48278;52.704;6.536;2022-07-29T09:57:02;8.88;;;2.63;;
58338;SDS011;48278;52.704;6.536;2022-07-29T09:59:32;11.93;;;2.83;;
58338;SDS011;48278;52.704;6.536;2022-07-29T10:01:58;7.20;;;2.90;;
58338;SDS011;48278;52.704;6.536;2022-07-29T10:04:35;13.95;;;3.17;;
58338;SDS011;48278;52.704;6.536;2022-07-29T10:07:07;7.28;;;2.60;;
58338;SDS011;48278;52.704;6.536;2022-07-29T10:09:34;8.10;;;2.60;;
58338;SDS011;48278;52.704;6.536;2022-07-29T10:14:34;6.40;;;2.53;;
58338;SDS011;48278;52.704;6.536;2022-07-29T10:17:00;8.57;;;2.22;;
58338;SDS011;48278;52.704;6.536;2022-07-29T10:19:28;8.13;;;2.40;;
58338;SDS011;48278;52.704;6.536;2022-07-29T10:21:58;8.85;;;2.72;;
58338;SDS011;48278;52.704;6.536;2022-07-29T10:26:58;6.50;;;1.92;;
58338;SDS011;48278;52.704;6.536;2022-07-29T10:29:25;10.55;;;2.25;;
58338;SDS011;48278;52.704;6.536;2022-07-29T10:31:55;6.90;;;2.40;;
58338;SDS011;48278;52.704;6.536;2022-07-29T10:34:31;8.48;;;2.08;;
58338;SDS011;48278;52.704;6.536;2022-07-29T10:37:20;10.27;;;2.00;;
58338;SDS011;48278;52.704;6.536;2022-07-29T10:42:52;9.32;;;2.40;;
58338;SDS011;48278;52.704;6.536;2022-07-29T10:45:19;6.32;;;2.58;;
58338;SDS011;48278;52.704;6.536;2022-07-29T10:47:45;10.32;;;2.88;;
58338;SDS011;48278;52.704;6.536;2022-07-29T10:50:11;9.00;;;2.30;;
58338;SDS011;48278;52.704;6.536;2022-07-29T10:55:36;10.38;;;2.13;;
58338;SDS011;48278;52.704;6.536;2022-07-29T10:58:12;7.93;;;2.08;;
58338;SDS011;48278;52.704;6.536;2022-07-29T11:00:39;8.50;;;2.10;;
58338;SDS011;48278;52.704;6.536;2022-07-29T11:03:06;9.60;;;2.35;;
58338;SDS011;48278;52.704;6.536;2022-07-29T11:05:50;8.63;;;2.37;;
58338;SDS011;48278;52.704;6.536;2022-07-29T11:08:19;5.22;;;1.92;;
58338;SDS011;48278;52.704;6.536;2022-07-29T11:10:48;7.40;;;2.33;;
58338;SDS011;48278;52.704;6.536;2022-07-29T11:16:09;8.52;;;2.70;;
58338;SDS011;48278;52.704;6.536;2022-07-29T11:21:39;9.07;;;2.42;;
58338;SDS011;48278;52.704;6.536;2022-07-29T11:24:13;7.80;;;2.10;;
58338;SDS011;48278;52.704;6.536;2022-07-29T11:26:44;6.47;;;2.35;;
58338;SDS011;48278;52.704;6.536;2022-07-29T11:31:40;9.80;;;2.08;;
58338;SDS011;48278;52.704;6.536;2022-07-29T11:37:18;10.07;;;2.03;;
58338;SDS011;48278;52.704;6.536;2022-07-29T11:47:33;11.57;;;2.53;;
58338;SDS011;48278;52.704;6.536;2022-07-29T11:50:09;7.63;;;2.47;;
58338;SDS011;48278;52.704;6.536;2022-07-29T11:52:37;7.55;;;2.40;;
58338;SDS011;48278;52.704;6.536;2022-07-29T11:55:15;7.25;;;2.33;;
58338;SDS011;48278;52.704;6.536;2022-07-29T12:03:00;10.70;;;2.47;;
58338;SDS011;48278;52.704;6.536;2022-07-29T12:05:36;7.38;;;2.15;;
58338;SDS011;48278;52.704;6.536;2022-07-29T12:08:20;9.88;;;2.15;;
58338;SDS011;48278;52.704;6.536;2022-07-29T12:10:47;7.70;;;2.40;;
58338;SDS011;48278;52.704;6.536;2022-07-29T12:13:15;7.32;;;2.50;;
58338;SDS011;48278;52.704;6.536;2022-07-29T12:15:42;10.32;;;2.75;;
58338;SDS011;48278;52.704;6.536;2022-07-29T12:18:17;7.72;;;2.10;;
58338;SDS011;48278;52.704;6.536;2022-07-29T12:20:45;9.18;;;2.15;;
58338;SDS011;48278;52.704;6.536;2022-07-29T12:23:12;7.03;;;2.63;;
58338;SDS011;48278;52.704;6.536;2022-07-29T12:25:39;6.47;;;2.25;;
58338;SDS011;48278;52.704;6.536;2022-07-29T12:28:07;8.40;;;2.58;;
58338;SDS011;48278;52.704;6.536;2022-07-29T12:30:42;6.15;;;2.38;;
58338;SDS011;48278;52.704;6.536;2022-07-29T12:33:10;10.05;;;2.25;;
58338;SDS011;48278;52.704;6.536;2022-07-29T12:35:39;6.72;;;1.92;;
58338;SDS011;48278;52.704;6.536;2022-07-29T12:38:06;8.98;;;1.80;;
58338;SDS011;48278;52.704;6.536;2022-07-29T12:40:35;4.25;;;1.50;;
58338;SDS011;48278;52.704;6.536;2022-07-29T12:43:17;6.38;;;1.95;;
58338;SDS011;48278;52.704;6.536;2022-07-29T12:45:45;7.60;;;1.52;;
58338;SDS011;48278;52.704;6.536;2022-07-29T12:48:17;8.20;;;1.88;;
58338;SDS011;48278;52.704;6.536;2022-07-29T12:51:05;7.93;;;1.90;;
58338;SDS011;48278;52.704;6.536;2022-07-29T12:53:33;9.50;;;1.60;;
58338;SDS011;48278;52.704;6.536;2022-07-29T12:56:01;5.45;;;1.70;;
58338;SDS011;48278;52.704;6.536;2022-07-29T12:58:35;11.27;;;1.90;;
58338;SDS011;48278;52.704;6.536;2022-07-29T13:01:03;7.72;;;2.00;;
58338;SDS011;48278;52.704;6.536;2022-07-29T13:03:54;7.93;;;2.08;;
58338;SDS011;48278;52.704;6.536;2022-07-29T13:06:31;10.13;;;2.25;;
58338;SDS011;48278;52.704;6.536;2022-07-29T13:11:36;14.48;;;2.40;;
58338;SDS011;48278;52.704;6.536;2022-07-29T13:14:08;9.38;;;2.22;;
58338;SDS011;48278;52.704;6.536;2022-07-29T13:16:36;8.02;;;1.83;;
58338;SDS011;48278;52.704;6.536;2022-07-29T13:19:17;7.88;;;2.05;;
58338;SDS011;48278;52.704;6.536;2022-07-29T13:21:44;8.13;;;2.20;;
58338;SDS011;48278;52.704;6.536;2022-07-29T13:24:10;11.70;;;2.17;;
58338;SDS011;48278;52.704;6.536;2022-07-29T13:26:39;6.75;;;1.90;;
58338;SDS011;48278;52.704;6.536;2022-07-29T13:29:05;10.02;;;2.13;;
58338;SDS011;48278;52.704;6.536;2022-07-29T13:31:31;11.35;;;1.70;;
58338;SDS011;48278;52.704;6.536;2022-07-29T13:33:57;7.23;;;2.03;;
58338;SDS011;48278;52.704;6.536;2022-07-29T13:36:23;11.85;;;1.83;;
58338;SDS011;48278;52.704;6.536;2022-07-29T13:38:49;9.20;;;1.60;;
58338;SDS011;48278;52.704;6.536;2022-07-29T13:41:15;9.90;;;1.50;;
58338;SDS011;48278;52.704;6.536;2022-07-29T13:43:40;5.10;;;1.60;;
58338;SDS011;48278;52.704;6.536;2022-07-29T13:46:06;5.80;;;1.50;;
58338;SDS011;48278;52.704;6.536;2022-07-29T13:48:32;9.70;;;1.83;;
58338;SDS011;48278;52.704;6.536;2022-07-29T13:50:58;7.88;;;1.50;;
58338;SDS011;48278;52.704;6.536;2022-07-29T13:53:23;8.07;;;1.77;;
58338;SDS011;48278;52.704;6.536;2022-07-29T13:55:49;5.47;;;2.10;;
58338;SDS011;48278;52.704;6.536;2022-07-29T13:58:16;6.40;;;1.67;;
58338;SDS011;48278;52.704;6.536;2022-07-29T14:00:42;6.03;;;1.90;;
58338;SDS011;48278;52.704;6.536;2022-07-29T14:03:07;11.07;;;2.43;;
58338;SDS011;48278;52.704;6.536;2022-07-29T14:05:33;9.27;;;1.70;;
58338;SDS011;48278;52.704;6.536;2022-07-29T14:07:59;9.80;;;1.80;;
58338;SDS011;48278;52.704;6.536;2022-07-29T14:10:25;7.97;;;2.07;;
58338;SDS011;48278;52.704;6.536;2022-07-29T14:15:17;5.90;;;1.83;;
58338;SDS011;48278;52.704;6.536;2022-07-29T14:17:43;10.23;;;1.90;;
58338;SDS011;48278;52.704;6.536;2022-07-29T14:20:09;8.00;;;1.53;;
58338;SDS011;48278;52.704;6.536;2022-07-29T14:22:34;4.50;;;1.73;;
58338;SDS011;48278;52.704;6.536;2022-07-29T14:25:00;7.90;;;2.17;;
58338;SDS011;48278;52.704;6.536;2022-07-29T14:27:26;4.30;;;1.60;;
58338;SDS011;48278;52.704;6.536;2022-07-29T14:29:51;10.13;;;2.13;;
58338;SDS011;48278;52.704;6.536;2022-07-29T14:32:18;6.35;;;1.73;;
58338;SDS011;48278;52.704;6.536;2022-07-29T14:34:44;6.70;;;2.10;;
58338;SDS011;48278;52.704;6.536;2022-07-29T14:37:09;11.40;;;2.40;;
58338;SDS011;48278;52.704;6.536;2022-07-29T14:39:35;6.87;;;2.10;;
58338;SDS011;48278;52.704;6.536;2022-07-29T14:42:01;7.55;;;1.65;;
58338;SDS011;48278;52.704;6.536;2022-07-29T14:44:27;4.32;;;1.83;;
58338;SDS011;48278;52.704;6.536;2022-07-29T14:46:56;5.88;;;1.80;;
58338;SDS011;48278;52.704;6.536;2022-07-29T14:49:24;10.93;;;2.15;;
58338;SDS011;48278;52.704;6.536;2022-07-29T14:51:50;5.40;;;1.40;;
58338;SDS011;48278;52.704;6.536;2022-07-29T14:54:16;5.93;;;1.35;;
58338;SDS011;48278;52.704;6.536;2022-07-29T14:56:43;11.93;;;1.55;;
58338;SDS011;48278;52.704;6.536;2022-07-29T14:59:08;6.33;;;1.83;;
58338;SDS011;48278;52.704;6.536;2022-07-29T15:01:34;9.60;;;1.90;;
58338;SDS011;48278;52.704;6.536;2022-07-29T15:04:00;7.90;;;2.10;;
58338;SDS011;48278;52.704;6.536;2022-07-29T15:06:26;7.10;;;1.73;;
58338;SDS011;48278;52.704;6.536;2022-07-29T15:08:51;6.10;;;1.98;;
58338;SDS011;48278;52.704;6.536;2022-07-29T15:11:17;8.30;;;1.92;;
58338;SDS011;48278;52.704;6.536;2022-07-29T15:13:44;5.32;;;1.83;;
58338;SDS011;48278;52.704;6.536;2022-07-29T15:16:10;9.70;;;1.70;;
58338;SDS011;48278;52.704;6.536;2022-07-29T15:18:35;5.87;;;1.67;;
58338;SDS011;48278;52.704;6.536;2022-07-29T15:21:03;7.78;;;1.85;;
58338;SDS011;48278;52.704;6.536;2022-07-29T15:23:31;8.68;;;2.05;;
58338;SDS011;48278;52.704;6.536;2022-07-29T15:25:57;6.88;;;1.40;;
58338;SDS011;48278;52.704;6.536;2022-07-29T15:28:23;8.68;;;1.80;;
58338;SDS011;48278;52.704;6.536;2022-07-29T15:30:49;9.43;;;1.80;;
58338;SDS011;48278;52.704;6.536;2022-07-29T15:33:15;4.90;;;1.50;;
58338;SDS011;48278;52.704;6.536;2022-07-29T15:35:40;5.27;;;1.97;;
58338;SDS011;48278;52.704;6.536;2022-07-29T15:38:06;6.33;;;1.77;;
58338;SDS011;48278;52.704;6.536;2022-07-29T15:40:32;6.97;;;1.88;;
58338;SDS011;48278;52.704;6.536;2022-07-29T15:43:00;6.95;;;1.38;;
58338;SDS011;48278;52.704;6.536;2022-07-29T15:45:34;7.13;;;1.60;;
58338;SDS011;48278;52.704;6.536;2022-07-29T15:48:04;7.57;;;1.67;;
58338;SDS011;48278;52.704;6.536;2022-07-29T15:50:32;4.07;;;1.40;;